sensor_id;sensor_type;location;lat;lon;timestamp;pressure;altitude;pressure_sealevel;temperature;humidity
76637;BME280;65532;52.124;5.480;2023-05-29T00:00:32;102412.94;;;9.74;90.34
76637;BME280;65532;52.124;5.480;2023-05-29T00:02:59;102425.78;;;9.72;91.03
76637;BME280;65532;52.124;5.480;2023-05-29T00:05:28;102413.69;;;9.68;91.39
76637;BME280;65532;52.124;5.480;2023-05-29T00:07:54;102404.91;;;9.66;90.82
76637;BME280;65532;52.124;5.480;2023-05-29T00:10:22;102415.94;;;9.65;90.56
76637;BME280;65532;52.124;5.480;2023-05-29T00:12:49;102408.16;;;9.61;90.44
76637;BME280;65532;52.124;5.480;2023-05-29T00:15:15;102412.06;;;9.59;90.61
76637;BME280;65532;52.124;5.480;2023-05-29T00:17:42;102411.44;;;9.57;90.37
76637;BME280;65532;52.124;5.480;2023-05-29T00:20:10;102402.47;;;9.56;90.60
76637;BME280;65532;52.124;5.480;2023-05-29T00:22:38;102405.19;;;9.56;90.00
76637;BME280;65532;52.124;5.480;2023-05-29T00:25:05;102401.63;;;9.56;90.21
76637;BME280;65532;52.124;5.480;2023-05-29T00:27:32;102410.13;;;9.53;90.65
76637;BME280;65532;52.124;5.480;2023-05-29T00:30:03;102406.78;;;9.51;90.82
76637;BME280;65532;52.124;5.480;2023-05-29T00:32:30;102405.09;;;9.50;90.84
76637;BME280;65532;52.124;5.480;2023-05-29T00:35:00;102412.56;;;9.48;91.07
76637;BME280;65532;52.124;5.480;2023-05-29T00:37:31;102415.41;;;9.46;91.17
76637;BME280;65532;52.124;5.480;2023-05-29T00:40:11;102419.00;;;9.47;90.83
76637;BME280;65532;52.124;5.480;2023-05-29T00:42:39;102412.06;;;9.44;91.06
76637;BME280;65532;52.124;5.480;2023-05-29T00:45:06;102423.44;;;9.40;90.92
76637;BME280;65532;52.124;5.480;2023-05-29T00:47:33;102420.47;;;9.35;91.34
76637;BME280;65532;52.124;5.480;2023-05-29T00:50:01;102430.63;;;9.33;91.12
76637;BME280;65532;52.124;5.480;2023-05-29T00:52:28;102430.97;;;9.29;91.35
76637;BME280;65532;52.124;5.480;2023-05-29T00:54:55;102426.31;;;9.23;91.11
76637;BME280;65532;52.124;5.480;2023-05-29T00:57:32;102421.91;;;9.22;91.31
76637;BME280;65532;52.124;5.480;2023-05-29T01:00:00;102428.34;;;9.21;91.18
76637;BME280;65532;52.124;5.480;2023-05-29T01:02:28;102427.88;;;9.18;91.25
76637;BME280;65532;52.124;5.480;2023-05-29T01:04:56;102431.78;;;9.15;91.27
76637;BME280;65532;52.124;5.480;2023-05-29T01:07:23;102430.09;;;9.14;91.04
76637;BME280;65532;52.124;5.480;2023-05-29T01:09:50;102428.59;;;9.12;91.44
76637;BME280;65532;52.124;5.480;2023-05-29T01:12:51;102437.91;;;9.09;91.28
76637;BME280;65532;52.124;5.480;2023-05-29T01:15:52;102440.13;;;9.06;91.43
76637;BME280;65532;52.124;5.480;2023-05-29T01:18:41;102445.41;;;8.99;91.28
76637;BME280;65532;52.124;5.480;2023-05-29T01:24:14;102447.81;;;8.94;91.67
76637;BME280;65532;52.124;5.480;2023-05-29T01:26:53;102456.09;;;8.92;91.48
76637;BME280;65532;52.124;5.480;2023-05-29T01:29:32;102460.69;;;8.92;91.78
76637;BME280;65532;52.124;5.480;2023-05-29T01:32:00;102465.25;;;8.91;91.34
76637;BME280;65532;52.124;5.480;2023-05-29T01:34:31;102466.25;;;8.90;91.68
76637;BME280;65532;52.124;5.480;2023-05-29T01:36:59;102473.69;;;8.88;91.61
76637;BME280;65532;52.124;5.480;2023-05-29T01:39:26;102473.38;;;8.83;91.97
76637;BME280;65532;52.124;5.480;2023-05-29T01:41:53;102473.28;;;8.77;91.59
76637;BME280;65532;52.124;5.480;2023-05-29T01:44:21;102474.94;;;8.78;91.85
76637;BME280;65532;52.124;5.480;2023-05-29T01:46:56;102472.78;;;8.73;91.49
76637;BME280;65532;52.124;5.480;2023-05-29T01:49:26;102469.25;;;8.73;91.63
76637;BME280;65532;52.124;5.480;2023-05-29T01:51:54;102470.28;;;8.72;91.57
76637;BME280;65532;52.124;5.480;2023-05-29T01:54:20;102480.06;;;8.73;91.74
76637;BME280;65532;52.124;5.480;2023-05-29T01:56:47;102478.41;;;8.63;91.51
76637;BME280;65532;52.124;5.480;2023-05-29T01:59:14;102481.84;;;8.57;91.53
76637;BME280;65532;52.124;5.480;2023-05-29T02:01:41;102488.63;;;8.53;91.06
76637;BME280;65532;52.124;5.480;2023-05-29T02:04:08;102490.97;;;8.48;90.89
76637;BME280;65532;52.124;5.480;2023-05-29T02:06:36;102485.94;;;8.45;90.81
76637;BME280;65532;52.124;5.480;2023-05-29T02:09:02;102499.63;;;8.44;90.68
76637;BME280;65532;52.124;5.480;2023-05-29T02:11:29;102490.19;;;8.39;90.51
76637;BME280;65532;52.124;5.480;2023-05-29T02:13:56;102495.41;;;8.41;89.71
76637;BME280;65532;52.124;5.480;2023-05-29T02:16:23;102491.22;;;8.38;89.38
76637;BME280;65532;52.124;5.480;2023-05-29T02:18:49;102479.06;;;8.34;89.08
76637;BME280;65532;52.124;5.480;2023-05-29T02:21:17;102477.34;;;8.33;89.40
76637;BME280;65532;52.124;5.480;2023-05-29T02:23:44;102478.56;;;8.31;88.76
76637;BME280;65532;52.124;5.480;2023-05-29T02:26:12;102470.63;;;8.29;88.25
76637;BME280;65532;52.124;5.480;2023-05-29T02:28:39;102469.50;;;8.24;88.14
76637;BME280;65532;52.124;5.480;2023-05-29T02:31:06;102469.84;;;8.21;87.74
76637;BME280;65532;52.124;5.480;2023-05-29T02:33:35;102479.09;;;8.18;87.78
76637;BME280;65532;52.124;5.480;2023-05-29T02:36:02;102485.69;;;8.16;88.23
76637;BME280;65532;52.124;5.480;2023-05-29T02:38:29;102482.50;;;8.12;88.56
76637;BME280;65532;52.124;5.480;2023-05-29T02:40:56;102486.06;;;8.13;87.74
76637;BME280;65532;52.124;5.480;2023-05-29T02:43:24;102488.75;;;8.13;87.06
76637;BME280;65532;52.124;5.480;2023-05-29T02:45:51;102482.22;;;8.07;87.11
76637;BME280;65532;52.124;5.480;2023-05-29T02:48:17;102490.13;;;8.08;86.05
76637;BME280;65532;52.124;5.480;2023-05-29T02:50:44;102483.03;;;8.07;86.05
76637;BME280;65532;52.124;5.480;2023-05-29T02:53:11;102475.97;;;8.06;87.62
76637;BME280;65532;52.124;5.480;2023-05-29T02:55:37;102492.47;;;8.03;87.54
76637;BME280;65532;52.124;5.480;2023-05-29T02:58:04;102492.47;;;8.03;86.27
76637;BME280;65532;52.124;5.480;2023-05-29T03:00:31;102483.38;;;8.04;86.23
76637;BME280;65532;52.124;5.480;2023-05-29T03:02:57;102492.16;;;7.98;86.00
76637;BME280;65532;52.124;5.480;2023-05-29T03:05:24;102486.47;;;7.93;86.72
76637;BME280;65532;52.124;5.480;2023-05-29T03:07:51;102492.03;;;7.92;86.32
76637;BME280;65532;52.124;5.480;2023-05-29T03:10:18;102493.88;;;7.91;85.20
76637;BME280;65532;52.124;5.480;2023-05-29T03:12:45;102495.91;;;7.89;85.47
76637;BME280;65532;52.124;5.480;2023-05-29T03:15:11;102493.53;;;7.86;84.57
76637;BME280;65532;52.124;5.480;2023-05-29T03:17:38;102494.72;;;7.84;83.81
76637;BME280;65532;52.124;5.480;2023-05-29T03:20:09;102488.84;;;7.80;84.06
76637;BME280;65532;52.124;5.480;2023-05-29T03:22:37;102486.69;;;7.75;83.74
76637;BME280;65532;52.124;5.480;2023-05-29T03:25:04;102486.34;;;7.70;82.93
76637;BME280;65532;52.124;5.480;2023-05-29T03:27:33;102482.97;;;7.68;82.36
76637;BME280;65532;52.124;5.480;2023-05-29T03:30:06;102477.94;;;7.65;82.05
76637;BME280;65532;52.124;5.480;2023-05-29T03:32:34;102488.88;;;7.64;82.69
76637;BME280;65532;52.124;5.480;2023-05-29T03:35:04;102483.31;;;7.65;80.86
76637;BME280;65532;52.124;5.480;2023-05-29T03:37:30;102480.78;;;7.64;81.81
76637;BME280;65532;52.124;5.480;2023-05-29T03:39:57;102485.34;;;7.63;80.67
76637;BME280;65532;52.124;5.480;2023-05-29T03:42:24;102488.22;;;7.62;80.53
76637;BME280;65532;52.124;5.480;2023-05-29T03:44:51;102489.91;;;7.63;80.46
76637;BME280;65532;52.124;5.480;2023-05-29T03:47:18;102486.19;;;7.64;81.09
76637;BME280;65532;52.124;5.480;2023-05-29T03:49:44;102488.53;;;7.67;81.47
76637;BME280;65532;52.124;5.480;2023-05-29T03:52:17;102485.84;;;7.67;81.87
76637;BME280;65532;52.124;5.480;2023-05-29T03:54:54;102490.22;;;7.68;82.14
76637;BME280;65532;52.124;5.480;2023-05-29T03:57:20;102489.03;;;7.70;82.15
76637;BME280;65532;52.124;5.480;2023-05-29T03:59:48;102495.09;;;7.72;82.85
76637;BME280;65532;52.124;5.480;2023-05-29T04:02:16;102496.28;;;7.78;82.84
76637;BME280;65532;52.124;5.480;2023-05-29T04:04:50;102498.44;;;7.82;83.24
76637;BME280;65532;52.124;5.480;2023-05-29T04:07:16;102493.88;;;7.83;84.26
76637;BME280;65532;52.124;5.480;2023-05-29T04:09:44;102502.16;;;7.81;84.81
76637;BME280;65532;52.124;5.480;2023-05-29T04:12:11;102501.97;;;7.83;85.44
76637;BME280;65532;52.124;5.480;2023-05-29T04:14:37;102501.63;;;7.86;84.68
76637;BME280;65532;52.124;5.480;2023-05-29T04:17:04;102504.16;;;7.88;86.12
76637;BME280;65532;52.124;5.480;2023-05-29T04:19:31;102500.63;;;7.87;85.81
76637;BME280;65532;52.124;5.480;2023-05-29T04:21:57;102510.25;;;7.90;86.79
76637;BME280;65532;52.124;5.480;2023-05-29T04:24:24;102517.31;;;7.91;86.38
76637;BME280;65532;52.124;5.480;2023-05-29T04:26:51;102513.44;;;7.93;86.74
76637;BME280;65532;52.124;5.480;2023-05-29T04:29:18;102518.47;;;7.96;87.09
76637;BME280;65532;52.124;5.480;2023-05-29T04:31:45;102514.41;;;8.00;87.77
76637;BME280;65532;52.124;5.480;2023-05-29T04:34:13;102517.44;;;8.05;87.64
76637;BME280;65532;52.124;5.480;2023-05-29T04:36:45;102527.03;;;8.08;89.48
76637;BME280;65532;52.124;5.480;2023-05-29T04:39:12;102528.38;;;8.12;88.88
76637;BME280;65532;52.124;5.480;2023-05-29T04:41:40;102528.69;;;8.17;88.92
76637;BME280;65532;52.124;5.480;2023-05-29T04:44:18;102527.66;;;8.18;89.36
76637;BME280;65532;52.124;5.480;2023-05-29T04:46:48;102541.50;;;8.23;89.72
76637;BME280;65532;52.124;5.480;2023-05-29T04:49:19;102534.56;;;8.29;90.55
76637;BME280;65532;52.124;5.480;2023-05-29T04:51:46;102536.56;;;8.35;91.02
76637;BME280;65532;52.124;5.480;2023-05-29T04:54:13;102543.63;;;8.44;90.28
76637;BME280;65532;52.124;5.480;2023-05-29T04:56:40;102529.78;;;8.47;90.99
76637;BME280;65532;52.124;5.480;2023-05-29T04:59:09;102534.66;;;8.52;90.86
76637;BME280;65532;52.124;5.480;2023-05-29T05:01:41;102532.09;;;8.58;91.21
76637;BME280;65532;52.124;5.480;2023-05-29T05:04:13;102541.81;;;8.67;91.21
76637;BME280;65532;52.124;5.480;2023-05-29T05:06:40;102543.47;;;8.77;91.32
76637;BME280;65532;52.124;5.480;2023-05-29T05:09:32;102548.16;;;8.83;91.82
76637;BME280;65532;52.124;5.480;2023-05-29T05:12:01;102544.25;;;9.16;91.82
76637;BME280;65532;52.124;5.480;2023-05-29T05:14:28;102546.59;;;9.80;92.12
76637;BME280;65532;52.124;5.480;2023-05-29T05:16:56;102544.34;;;10.72;91.18
76637;BME280;65532;52.124;5.480;2023-05-29T05:19:22;102547.25;;;11.70;89.06
76637;BME280;65532;52.124;5.480;2023-05-29T05:21:49;102545.81;;;12.78;85.08
76637;BME280;65532;52.124;5.480;2023-05-29T05:24:18;102540.44;;;13.05;80.61
76637;BME280;65532;52.124;5.480;2023-05-29T05:26:48;102531.34;;;13.59;79.56
76637;BME280;65532;52.124;5.480;2023-05-29T05:29:21;102533.97;;;14.25;75.70
76637;BME280;65532;52.124;5.480;2023-05-29T05:31:48;102533.34;;;14.23;73.52
76637;BME280;65532;52.124;5.480;2023-05-29T05:34:16;102541.50;;;14.36;72.22
76637;BME280;65532;52.124;5.480;2023-05-29T05:36:43;102543.56;;;14.34;72.07
76637;BME280;65532;52.124;5.480;2023-05-29T05:39:13;102546.03;;;14.68;71.15
76637;BME280;65532;52.124;5.480;2023-05-29T05:41:43;102538.59;;;15.20;68.77
76637;BME280;65532;52.124;5.480;2023-05-29T05:44:13;102539.38;;;15.27;67.48
76637;BME280;65532;52.124;5.480;2023-05-29T05:46:50;102544.66;;;15.22;66.84
76637;BME280;65532;52.124;5.480;2023-05-29T05:49:17;102547.19;;;14.86;65.92
76637;BME280;65532;52.124;5.480;2023-05-29T05:51:44;102545.13;;;15.13;66.56
76637;BME280;65532;52.124;5.480;2023-05-29T05:54:11;102540.66;;;15.25;64.42
76637;BME280;65532;52.124;5.480;2023-05-29T05:56:38;102546.91;;;15.32;64.60
76637;BME280;65532;52.124;5.480;2023-05-29T05:59:08;102559.72;;;15.32;64.33
76637;BME280;65532;52.124;5.480;2023-05-29T06:01:34;102557.53;;;15.40;64.51
76637;BME280;65532;52.124;5.480;2023-05-29T06:04:02;102559.88;;;15.68;62.04
76637;BME280;65532;52.124;5.480;2023-05-29T06:06:30;102559.78;;;15.81;61.96
76637;BME280;65532;52.124;5.480;2023-05-29T06:08:58;102555.31;;;16.30;61.74
76637;BME280;65532;52.124;5.480;2023-05-29T06:11:26;102565.50;;;16.78;59.94
76637;BME280;65532;52.124;5.480;2023-05-29T06:13:54;102557.47;;;16.40;59.06
76637;BME280;65532;52.124;5.480;2023-05-29T06:16:26;102551.63;;;16.00;58.09
76637;BME280;65532;52.124;5.480;2023-05-29T06:18:53;102559.88;;;15.68;60.43
76637;BME280;65532;52.124;5.480;2023-05-29T06:21:20;102558.59;;;15.96;58.73
76637;BME280;65532;52.124;5.480;2023-05-29T06:23:51;102566.66;;;15.59;60.45
76637;BME280;65532;52.124;5.480;2023-05-29T06:26:19;102550.84;;;15.93;58.80
76637;BME280;65532;52.124;5.480;2023-05-29T06:28:47;102556.03;;;15.76;58.30
76637;BME280;65532;52.124;5.480;2023-05-29T06:31:14;102561.50;;;15.13;58.63
76637;BME280;65532;52.124;5.480;2023-05-29T06:33:41;102559.66;;;15.07;59.71
76637;BME280;65532;52.124;5.480;2023-05-29T06:36:08;102562.00;;;15.66;60.42
76637;BME280;65532;52.124;5.480;2023-05-29T06:38:35;102569.75;;;15.38;58.26
76637;BME280;65532;52.124;5.480;2023-05-29T06:41:02;102569.41;;;14.83;58.71
76637;BME280;65532;52.124;5.480;2023-05-29T06:43:29;102562.09;;;14.83;60.26
76637;BME280;65532;52.124;5.480;2023-05-29T06:45:57;102566.97;;;15.13;58.96
76637;BME280;65532;52.124;5.480;2023-05-29T06:48:23;102568.25;;;15.73;58.93
76637;BME280;65532;52.124;5.480;2023-05-29T06:50:50;102571.38;;;16.38;56.37
76637;BME280;65532;52.124;5.480;2023-05-29T06:53:39;102569.72;;;16.19;55.88
76637;BME280;65532;52.124;5.480;2023-05-29T06:56:07;102577.91;;;16.19;55.83
76637;BME280;65532;52.124;5.480;2023-05-29T06:58:34;102577.22;;;15.80;56.99
76637;BME280;65532;52.124;5.480;2023-05-29T07:01:01;102575.03;;;16.51;56.25
76637;BME280;65532;52.124;5.480;2023-05-29T07:03:34;102572.94;;;15.66;54.95
76637;BME280;65532;52.124;5.480;2023-05-29T07:06:04;102583.13;;;14.70;56.75
76637;BME280;65532;52.124;5.480;2023-05-29T07:08:31;102585.72;;;14.38;59.38
76637;BME280;65532;52.124;5.480;2023-05-29T07:10:58;102573.16;;;14.24;60.19
76637;BME280;65532;52.124;5.480;2023-05-29T07:13:25;102575.72;;;14.05;60.80
76637;BME280;65532;52.124;5.480;2023-05-29T07:15:52;102577.59;;;13.52;61.80
76637;BME280;65532;52.124;5.480;2023-05-29T07:18:25;102577.00;;;13.90;62.30
76637;BME280;65532;52.124;5.480;2023-05-29T07:20:55;102579.50;;;13.78;62.19
76637;BME280;65532;52.124;5.480;2023-05-29T07:23:24;102595.41;;;14.07;61.70
76637;BME280;65532;52.124;5.480;2023-05-29T07:25:53;102584.53;;;13.81;61.99
76637;BME280;65532;52.124;5.480;2023-05-29T07:28:22;102596.88;;;13.77;62.34
76637;BME280;65532;52.124;5.480;2023-05-29T07:30:49;102591.63;;;13.69;62.15
76637;BME280;65532;52.124;5.480;2023-05-29T07:33:15;102590.38;;;13.65;62.91
76637;BME280;65532;52.124;5.480;2023-05-29T07:35:43;102595.84;;;13.78;63.43
76637;BME280;65532;52.124;5.480;2023-05-29T07:38:10;102586.41;;;13.94;63.03
76637;BME280;65532;52.124;5.480;2023-05-29T07:40:38;102585.34;;;14.01;62.27
76637;BME280;65532;52.124;5.480;2023-05-29T07:43:26;102587.41;;;14.26;61.17
76637;BME280;65532;52.124;5.480;2023-05-29T07:45:57;102593.00;;;14.71;62.04
76637;BME280;65532;52.124;5.480;2023-05-29T07:48:23;102590.44;;;14.76;62.23
76637;BME280;65532;52.124;5.480;2023-05-29T07:50:51;102591.22;;;15.27;60.50
76637;BME280;65532;52.124;5.480;2023-05-29T07:53:18;102582.41;;;15.25;59.76
76637;BME280;65532;52.124;5.480;2023-05-29T07:55:46;102587.44;;;15.28;59.85
76637;BME280;65532;52.124;5.480;2023-05-29T07:58:13;102591.06;;;14.78;58.86
76637;BME280;65532;52.124;5.480;2023-05-29T08:00:40;102594.09;;;14.30;60.61
76637;BME280;65532;52.124;5.480;2023-05-29T08:03:07;102588.22;;;14.39;60.79
76637;BME280;65532;52.124;5.480;2023-05-29T08:06:01;102596.63;;;14.18;60.35
76637;BME280;65532;52.124;5.480;2023-05-29T08:08:28;102590.94;;;14.33;60.60
76637;BME280;65532;52.124;5.480;2023-05-29T08:10:55;102597.03;;;14.35;59.64
76637;BME280;65532;52.124;5.480;2023-05-29T08:13:22;102597.03;;;14.35;59.47
76637;BME280;65532;52.124;5.480;2023-05-29T08:15:49;102598.72;;;14.36;59.67
76637;BME280;65532;52.124;5.480;2023-05-29T08:18:15;102599.31;;;14.51;58.79
76637;BME280;65532;52.124;5.480;2023-05-29T08:20:42;102607.84;;;14.75;59.80
76637;BME280;65532;52.124;5.480;2023-05-29T08:23:09;102601.59;;;14.67;58.82
76637;BME280;65532;52.124;5.480;2023-05-29T08:25:36;102597.78;;;15.20;59.53
76637;BME280;65532;52.124;5.480;2023-05-29T08:28:02;102594.56;;;15.29;58.39
76637;BME280;65532;52.124;5.480;2023-05-29T08:30:28;102600.38;;;15.40;58.36
76637;BME280;65532;52.124;5.480;2023-05-29T08:32:55;102595.44;;;15.86;57.41
76637;BME280;65532;52.124;5.480;2023-05-29T08:35:22;102610.53;;;15.33;56.33
76637;BME280;65532;52.124;5.480;2023-05-29T08:37:49;102595.63;;;15.28;58.40
76637;BME280;65532;52.124;5.480;2023-05-29T08:40:15;102596.72;;;15.84;58.31
76637;BME280;65532;52.124;5.480;2023-05-29T08:42:46;102600.34;;;16.03;56.47
76637;BME280;65532;52.124;5.480;2023-05-29T08:45:13;102600.03;;;15.29;55.71
76637;BME280;65532;52.124;5.480;2023-05-29T08:47:41;102600.47;;;15.26;58.09
76637;BME280;65532;52.124;5.480;2023-05-29T08:50:13;102603.13;;;15.40;57.48
76637;BME280;65532;52.124;5.480;2023-05-29T08:52:41;102600.13;;;15.16;56.26
76637;BME280;65532;52.124;5.480;2023-05-29T08:55:08;102607.38;;;14.91;56.69
76637;BME280;65532;52.124;5.480;2023-05-29T08:57:36;102594.56;;;15.29;57.20
76637;BME280;65532;52.124;5.480;2023-05-29T09:00:04;102602.34;;;15.57;56.27
76637;BME280;65532;52.124;5.480;2023-05-29T09:02:39;102607.88;;;15.51;55.27
76637;BME280;65532;52.124;5.480;2023-05-29T09:05:06;102617.13;;;15.50;55.38
76637;BME280;65532;52.124;5.480;2023-05-29T09:07:34;102618.63;;;15.08;54.93
76637;BME280;65532;52.124;5.480;2023-05-29T09:10:00;102614.63;;;15.10;58.51
76637;BME280;65532;52.124;5.480;2023-05-29T09:12:27;102614.31;;;15.32;56.50
76637;BME280;65532;52.124;5.480;2023-05-29T09:14:54;102614.19;;;15.45;54.95
76637;BME280;65532;52.124;5.480;2023-05-29T09:17:20;102620.63;;;15.25;55.28
76637;BME280;65532;52.124;5.480;2023-05-29T09:19:48;102600.97;;;15.10;54.91
76637;BME280;65532;52.124;5.480;2023-05-29T09:22:15;102613.09;;;15.59;57.29
76637;BME280;65532;52.124;5.480;2023-05-29T09:24:46;102616.34;;;15.99;54.99
76637;BME280;65532;52.124;5.480;2023-05-29T09:27:13;102608.53;;;16.28;53.37
76637;BME280;65532;52.124;5.480;2023-05-29T09:29:41;102620.00;;;16.55;54.52
76637;BME280;65532;52.124;5.480;2023-05-29T09:32:10;102620.47;;;16.52;52.94
76637;BME280;65532;52.124;5.480;2023-05-29T09:34:37;102618.03;;;16.43;52.58
76637;BME280;65532;52.124;5.480;2023-05-29T09:37:08;102621.63;;;16.19;52.41
76637;BME280;65532;52.124;5.480;2023-05-29T09:42:08;102602.03;;;16.22;53.00
76637;BME280;65532;52.124;5.480;2023-05-29T09:44:35;102608.06;;;16.31;52.25
76637;BME280;65532;52.124;5.480;2023-05-29T09:47:02;102616.53;;;16.84;52.93
76637;BME280;65532;52.124;5.480;2023-05-29T09:49:31;102615.00;;;16.52;52.08
76637;BME280;65532;52.124;5.480;2023-05-29T09:51:58;102607.50;;;16.22;52.17
76637;BME280;65532;52.124;5.480;2023-05-29T09:54:28;102608.91;;;16.31;51.49
76637;BME280;65532;52.124;5.480;2023-05-29T09:57:00;102602.66;;;16.24;53.20
76637;BME280;65532;52.124;5.480;2023-05-29T09:59:27;102609.06;;;16.55;52.53
76637;BME280;65532;52.124;5.480;2023-05-29T10:02:02;102605.00;;;16.82;51.93
76637;BME280;65532;52.124;5.480;2023-05-29T10:04:31;102606.38;;;16.73;51.76
76637;BME280;65532;52.124;5.480;2023-05-29T10:07:15;102608.19;;;17.27;51.45
76637;BME280;65532;52.124;5.480;2023-05-29T10:09:49;102605.03;;;17.42;51.60
76637;BME280;65532;52.124;5.480;2023-05-29T10:12:20;102605.84;;;17.73;49.00
76637;BME280;65532;52.124;5.480;2023-05-29T10:14:49;102593.34;;;17.47;48.55
76637;BME280;65532;52.124;5.480;2023-05-29T10:17:18;102597.97;;;17.04;50.69
76637;BME280;65532;52.124;5.480;2023-05-29T10:19:50;102599.88;;;16.86;50.77
76637;BME280;65532;52.124;5.480;2023-05-29T10:22:19;102597.09;;;16.92;50.94
76637;BME280;65532;52.124;5.480;2023-05-29T10:24:48;102598.72;;;17.12;50.16
76637;BME280;65532;52.124;5.480;2023-05-29T10:27:16;102592.41;;;17.11;49.53
76637;BME280;65532;52.124;5.480;2023-05-29T10:29:56;102607.28;;;16.67;50.37
76637;BME280;65532;52.124;5.480;2023-05-29T10:32:52;102598.44;;;16.83;50.10
76637;BME280;65532;52.124;5.480;2023-05-29T10:35:27;102581.44;;;16.81;49.56
76637;BME280;65532;52.124;5.480;2023-05-29T10:38:11;102588.72;;;17.17;51.23
76637;BME280;65532;52.124;5.480;2023-05-29T10:40:39;102582.91;;;17.55;49.73
76637;BME280;65532;52.124;5.480;2023-05-29T10:43:06;102587.88;;;16.87;50.86
76637;BME280;65532;52.124;5.480;2023-05-29T10:50:46;102586.69;;;17.13;49.90
76637;BME280;65532;52.124;5.480;2023-05-29T10:53:17;102581.16;;;17.01;51.72
76637;BME280;65532;52.124;5.480;2023-05-29T10:55:45;102575.22;;;17.34;51.22
76637;BME280;65532;52.124;5.480;2023-05-29T10:58:19;102576.31;;;17.86;49.40
76637;BME280;65532;52.124;5.480;2023-05-29T11:00:47;102577.31;;;17.62;48.46
76637;BME280;65532;52.124;5.480;2023-05-29T11:03:24;102580.13;;;18.09;48.39
76637;BME280;65532;52.124;5.480;2023-05-29T11:06:02;102582.28;;;18.07;47.50
76637;BME280;65532;52.124;5.480;2023-05-29T11:08:56;102576.31;;;17.75;47.56
76637;BME280;65532;52.124;5.480;2023-05-29T11:11:31;102577.63;;;18.07;47.77
76637;BME280;65532;52.124;5.480;2023-05-29T11:14:03;102583.56;;;17.81;47.25
76637;BME280;65532;52.124;5.480;2023-05-29T11:18:58;102574.88;;;18.31;47.43
76637;BME280;65532;52.124;5.480;2023-05-29T11:21:51;102569.28;;;18.02;45.97
76637;BME280;65532;52.124;5.480;2023-05-29T11:24:25;102571.91;;;17.74;47.57
76637;BME280;65532;52.124;5.480;2023-05-29T11:26:53;102566.44;;;17.85;46.08
76637;BME280;65532;52.124;5.480;2023-05-29T11:29:28;102578.09;;;18.27;46.28
76637;BME280;65532;52.124;5.480;2023-05-29T11:34:28;102563.22;;;18.00;46.20
76637;BME280;65532;52.124;5.480;2023-05-29T11:36:59;102570.59;;;18.35;45.44
76637;BME280;65532;52.124;5.480;2023-05-29T11:39:26;102562.72;;;18.26;45.60
76637;BME280;65532;52.124;5.480;2023-05-29T11:41:54;102573.28;;;18.58;45.77
76637;BME280;65532;52.124;5.480;2023-05-29T11:44:24;102568.53;;;18.42;46.89
76637;BME280;65532;52.124;5.480;2023-05-29T11:47:00;102574.63;;;18.96;46.53
76637;BME280;65532;52.124;5.480;2023-05-29T11:49:29;102574.66;;;18.84;43.38
76637;BME280;65532;52.124;5.480;2023-05-29T11:52:10;102567.63;;;18.01;44.85
76637;BME280;65532;52.124;5.480;2023-05-29T11:54:42;102576.22;;;18.16;46.63
76637;BME280;65532;52.124;5.480;2023-05-29T11:57:20;102581.94;;;18.03;46.63
76637;BME280;65532;52.124;5.480;2023-05-29T11:59:49;102564.16;;;17.71;47.06
76637;BME280;65532;52.124;5.480;2023-05-29T12:02:18;102566.66;;;17.84;47.59
76637;BME280;65532;52.124;5.480;2023-05-29T12:05:02;102571.53;;;17.82;47.00
76637;BME280;65532;52.124;5.480;2023-05-29T12:07:30;102562.47;;;17.81;47.51
76637;BME280;65532;52.124;5.480;2023-05-29T12:09:56;102570.00;;;18.09;48.45
76637;BME280;65532;52.124;5.480;2023-05-29T12:12:24;102561.03;;;18.25;46.16
76637;BME280;65532;52.124;5.480;2023-05-29T12:14:50;102570.72;;;18.16;47.60
76637;BME280;65532;52.124;5.480;2023-05-29T12:17:19;102568.81;;;17.93;46.91
76637;BME280;65532;52.124;5.480;2023-05-29T12:19:46;102564.41;;;17.92;46.44
76637;BME280;65532;52.124;5.480;2023-05-29T12:22:12;102567.72;;;17.94;46.59
76637;BME280;65532;52.124;5.480;2023-05-29T12:24:39;102562.63;;;17.86;45.53
76637;BME280;65532;52.124;5.480;2023-05-29T12:27:09;102577.63;;;17.84;46.50
76637;BME280;65532;52.124;5.480;2023-05-29T12:29:35;102573.25;;;17.64;45.12
76637;BME280;65532;52.124;5.480;2023-05-29T12:32:02;102571.81;;;17.50;47.35
76637;BME280;65532;52.124;5.480;2023-05-29T12:34:34;102561.31;;;17.47;46.70
76637;BME280;65532;52.124;5.480;2023-05-29T12:37:09;102569.44;;;17.65;46.54
76637;BME280;65532;52.124;5.480;2023-05-29T12:39:40;102553.31;;;17.87;49.04
76637;BME280;65532;52.124;5.480;2023-05-29T12:42:06;102563.44;;;18.10;47.33
76637;BME280;65532;52.124;5.480;2023-05-29T12:44:33;102561.56;;;17.99;47.66
76637;BME280;65532;52.124;5.480;2023-05-29T12:47:00;102550.69;;;18.04;47.13
76637;BME280;65532;52.124;5.480;2023-05-29T12:49:26;102567.97;;;18.16;46.95
76637;BME280;65532;52.124;5.480;2023-05-29T12:51:55;102571.59;;;18.57;45.69
76637;BME280;65532;52.124;5.480;2023-05-29T12:54:30;102558.78;;;18.34;45.68
76637;BME280;65532;52.124;5.480;2023-05-29T12:56:57;102558.19;;;17.97;45.52
76637;BME280;65532;52.124;5.480;2023-05-29T12:59:27;102563.66;;;17.97;44.29
76637;BME280;65532;52.124;5.480;2023-05-29T13:01:53;102565.81;;;17.72;44.17
76637;BME280;65532;52.124;5.480;2023-05-29T13:04:20;102564.03;;;17.77;44.75
76637;BME280;65532;52.124;5.480;2023-05-29T13:06:47;102561.00;;;17.55;45.03
76637;BME280;65532;52.124;5.480;2023-05-29T13:09:13;102569.94;;;17.62;45.08
76637;BME280;65532;52.124;5.480;2023-05-29T13:11:40;102553.50;;;17.62;44.87
76637;BME280;65532;52.124;5.480;2023-05-29T13:14:07;102578.22;;;17.86;45.77
76637;BME280;65532;52.124;5.480;2023-05-29T13:16:33;102567.88;;;18.00;45.41
76637;BME280;65532;52.124;5.480;2023-05-29T13:19:01;102562.22;;;18.30;44.12
76637;BME280;65532;52.124;5.480;2023-05-29T13:21:28;102567.94;;;18.28;45.90